Time;durP1;ratioP1;P1;durP2;ratioP2;P2;SDS_P1;SDS_P2;PMS_P1;PMS_P2;Temp;Humidity;BMP_temperature;BMP_pressure;BME280_temperature;BME280_humidity;BME280_pressure;Samples;Min_cycle;Max_cycle;Signal;HPM_P1;HPM_P2
2022/05/26 00:01:30;;;;;;;8.77;3.20;;;14.50;99.90;;;;;;5052579;28;20197;-64
2022/05/26 00:03:59;;;;;;;12.77;3.83;;;14.50;99.90;;;;;;5049417;28;20542;-64
2022/05/26 00:06:28;;;;;;;13.67;3.73;;;14.50;99.90;;;;;;5053801;28;20237;-64
2022/05/26 00:08:57;;;;;;;11.17;3.60;;;14.50;99.90;;;;;;5053754;28;20726;-63
2022/05/26 00:11:28;;;;;;;10.13;3.57;;;14.50;99.90;;;;;;5088029;28;20185;-64
2022/05/26 00:13:59;;;;;;;13.60;3.57;;;14.50;99.90;;;;;;5058870;28;20195;-64
2022/05/26 00:16:28;;;;;;;9.50;3.40;;;14.50;99.90;;;;;;5038752;28;20243;-63
2022/05/26 00:18:57;;;;;;;7.77;3.70;;;14.50;99.90;;;;;;5052377;28;20661;-64
2022/05/26 00:21:26;;;;;;;7.90;3.60;;;14.60;99.90;;;;;;5044093;28;20193;-63
2022/05/26 00:23:56;;;;;;;18.30;3.77;;;14.50;99.90;;;;;;5085184;28;20311;-64
2022/05/26 00:26:25;;;;;;;13.97;4.07;;;14.60;99.90;;;;;;5035289;28;20239;-64
2022/05/26 00:28:53;;;;;;;10.80;3.67;;;14.60;99.90;;;;;;5053120;28;20207;-64
2022/05/26 00:31:24;;;;;;;17.20;4.20;;;14.60;99.90;;;;;;5068378;28;20203;-64
2022/05/26 00:33:52;;;;;;;12.50;3.60;;;14.60;99.90;;;;;;5053395;28;20259;-64
2022/05/26 00:36:37;;;;;;;11.60;3.73;;;14.60;99.90;;;;;;5051603;28;20224;-64
2022/05/26 00:39:08;;;;;;;13.13;4.10;;;14.60;99.90;;;;;;5044648;28;20198;-63
2022/05/26 00:41:40;;;;;;;18.13;4.17;;;14.50;99.90;;;;;;5043971;28;20225;-64
2022/05/26 00:44:09;;;;;;;12.17;4.07;;;14.50;99.90;;;;;;5053250;28;20275;-63
2022/05/26 00:46:46;;;;;;;15.70;4.30;;;14.50;99.90;;;;;;5053227;28;20241;-63
2022/05/26 00:49:22;;;;;;;10.27;3.83;;;14.50;99.90;;;;;;5051686;28;20232;-63
2022/05/26 00:51:51;;;;;;;17.43;4.03;;;14.50;99.90;;;;;;5049686;28;20279;-64
2022/05/26 00:54:22;;;;;;;15.20;3.97;;;14.60;99.90;;;;;;5053220;28;20284;-64
2022/05/26 00:56:57;;;;;;;19.20;4.27;;;14.60;99.90;;;;;;5052302;28;20205;-63
2022/05/26 00:59:32;;;;;;;17.13;4.10;;;14.60;99.90;;;;;;5051999;28;20192;-64
2022/05/26 01:02:05;;;;;;;20.40;4.17;;;14.60;99.90;;;;;;5051190;28;20244;-64
2022/05/26 01:04:40;;;;;;;16.70;3.80;;;14.60;99.90;;;;;;5052662;28;20196;-64
2022/05/26 01:07:29;;;;;;;16.80;4.10;;;14.60;99.90;;;;;;5084764;28;20204;-64
2022/05/26 01:09:59;;;;;;;16.90;4.57;;;14.60;99.90;;;;;;5056186;28;20209;-64
2022/05/26 01:12:27;;;;;;;12.53;3.90;;;14.60;99.90;;;;;;5048336;28;20196;-64
2022/05/26 01:15:00;;;;;;;20.30;4.50;;;14.60;99.90;;;;;;5050659;28;20209;-63
2022/05/26 01:17:43;;;;;;;17.60;4.37;;;14.60;99.90;;;;;;5049022;28;20197;-64
2022/05/26 01:20:39;;;;;;;13.80;4.87;;;14.60;99.90;;;;;;5039114;28;20236;-63
2022/05/26 01:23:27;;;;;;;13.57;4.20;;;14.60;99.90;;;;;;5045518;28;20200;-64
2022/05/26 01:26:19;;;;;;;19.43;4.30;;;14.60;99.90;;;;;;5045753;28;20303;-64
2022/05/26 01:29:19;;;;;;;16.03;4.30;;;14.60;99.90;;;;;;5045988;28;20692;-64
2022/05/26 01:31:57;;;;;;;14.87;4.30;;;14.60;99.90;;;;;;5027665;28;20217;-64
2022/05/26 01:34:33;;;;;;;18.93;4.37;;;14.60;99.90;;;;;;5061881;28;20288;-63
2022/05/26 01:37:11;;;;;;;16.30;4.07;;;14.60;99.90;;;;;;5051558;28;20263;-64
2022/05/26 01:39:48;;;;;;;23.80;4.63;;;14.50;99.90;;;;;;5049947;28;20200;-63
2022/05/26 01:42:27;;;;;;;18.83;4.07;;;14.60;99.90;;;;;;5051741;28;20676;-64
2022/05/26 01:45:04;;;;;;;19.13;4.37;;;14.50;99.90;;;;;;5052858;28;20184;-64
2022/05/26 01:47:43;;;;;;;20.43;4.20;;;14.50;99.90;;;;;;5048218;28;20201;-64
2022/05/26 01:50:25;;;;;;;19.10;4.50;;;14.50;99.90;;;;;;5047641;28;20696;-64
2022/05/26 01:53:04;;;;;;;18.47;4.23;;;14.50;99.90;;;;;;5048635;28;20595;-64
2022/05/26 01:55:41;;;;;;;20.33;4.60;;;14.50;99.90;;;;;;5041560;28;20595;-63
2022/05/26 01:58:18;;;;;;;26.03;4.90;;;14.50;99.90;;;;;;5046155;28;20275;-64
2022/05/26 02:00:47;;;;;;;23.17;5.00;;;14.40;99.90;;;;;;5051949;28;20500;-64
2022/05/26 02:03:21;;;;;;;20.97;4.37;;;14.40;99.90;;;;;;5052274;28;20552;-64
2022/05/26 02:05:53;;;;;;;27.17;5.10;;;14.40;99.90;;;;;;5044012;28;20193;-64
2022/05/26 02:08:27;;;;;;;19.53;4.83;;;14.40;99.90;;;;;;5054070;28;20275;-64
2022/05/26 02:11:02;;;;;;;17.77;4.73;;;14.40;99.90;;;;;;5046953;28;20207;-64
2022/05/26 02:13:35;;;;;;;21.87;4.83;;;14.40;99.90;;;;;;5049377;28;20189;-64
2022/05/26 02:16:09;;;;;;;20.57;4.50;;;14.40;99.90;;;;;;5051519;28;20257;-64
2022/05/26 02:18:44;;;;;;;25.67;5.23;;;14.30;99.90;;;;;;5049383;28;20659;-63
2022/05/26 02:21:20;;;;;;;17.33;4.53;;;14.30;99.90;;;;;;5051774;28;20582;-64
2022/05/26 02:23:55;;;;;;;24.57;5.67;;;14.30;99.90;;;;;;5073459;28;20205;-64
2022/05/26 02:26:23;;;;;;;17.00;4.40;;;14.40;99.90;;;;;;5041871;28;20214;-64
2022/05/26 02:31:40;;;;;;;19.83;4.83;;;14.30;99.90;;;;;;5076677;28;20197;-64
2022/05/26 02:34:11;;;;;;;22.67;5.50;;;14.30;99.90;;;;;;5055019;28;20201;-64
2022/05/26 02:36:41;;;;;;;22.53;4.90;;;14.30;99.90;;;;;;5055898;28;20216;-64
2022/05/26 02:39:09;;;;;;;23.67;4.90;;;14.30;99.90;;;;;;5055466;28;20197;-64
2022/05/26 02:41:39;;;;;;;16.03;4.87;;;14.20;99.90;;;;;;5055791;28;20197;-64
2022/05/26 02:44:08;;;;;;;18.13;5.07;;;14.20;99.90;;;;;;5056026;28;20658;-64
2022/05/26 02:46:52;;;;;;;22.00;5.30;;;14.20;99.90;;;;;;5049496;28;20263;-64
2022/05/26 02:49:42;;;;;;;24.77;5.33;;;14.10;99.90;;;;;;5055743;28;20220;-64
2022/05/26 02:52:24;;;;;;;26.67;5.53;;;14.10;99.90;;;;;;5047929;28;20204;-64
2022/05/26 02:55:06;;;;;;;22.07;5.17;;;14.10;99.90;;;;;;5055290;28;20189;-64
2022/05/26 02:57:39;;;;;;;19.63;4.73;;;14.00;99.90;;;;;;5052711;28;20548;-64
2022/05/26 03:00:12;;;;;;;23.03;5.20;;;14.00;99.90;;;;;;5053783;28;20288;-64
2022/05/26 03:02:46;;;;;;;30.60;5.70;;;13.90;99.90;;;;;;5051055;28;20660;-64
2022/05/26 03:05:22;;;;;;;27.27;5.13;;;13.90;99.90;;;;;;5053394;28;20557;-64
2022/05/26 03:07:57;;;;;;;30.03;5.67;;;13.90;99.90;;;;;;5054444;28;20342;-64
2022/05/26 03:10:26;;;;;;;32.50;6.27;;;13.90;99.90;;;;;;5054673;28;20200;-64
2022/05/26 03:12:56;;;;;;;24.00;5.67;;;13.80;99.90;;;;;;5045437;28;20597;-63
2022/05/26 03:15:24;;;;;;;19.37;5.77;;;13.70;99.90;;;;;;5051466;28;20221;-63
2022/05/26 03:17:53;;;;;;;28.27;5.63;;;13.80;99.90;;;;;;5051170;28;20236;-64
2022/05/26 03:20:23;;;;;;;31.53;5.63;;;13.80;99.90;;;;;;5047998;28;20189;-63
2022/05/26 03:22:51;;;;;;;23.30;6.23;;;13.70;99.90;;;;;;5043329;28;20193;-63
2022/05/26 03:25:20;;;;;;;20.83;5.77;;;13.70;99.90;;;;;;5050356;28;20196;-63
2022/05/26 03:27:48;;;;;;;26.10;5.70;;;13.70;99.90;;;;;;5050768;28;20217;-64
2022/05/26 03:30:17;;;;;;;22.00;5.47;;;13.60;99.90;;;;;;5052249;28;20270;-64
2022/05/26 03:32:46;;;;;;;31.80;6.07;;;13.60;99.90;;;;;;5048255;28;20201;-64
2022/05/26 03:40:56;;;;;;;23.67;5.77;;;13.70;99.90;;;;;;5051020;28;20220;-63
2022/05/26 03:43:30;;;;;;;33.33;6.13;;;13.70;99.90;;;;;;5051783;28;20200;-64
2022/05/26 03:45:59;;;;;;;29.80;6.40;;;13.60;99.90;;;;;;5050283;28;20197;-64
2022/05/26 03:48:29;;;;;;;24.00;6.47;;;13.60;99.90;;;;;;5050980;28;20299;-64
2022/05/26 03:50:58;;;;;;;28.53;6.30;;;13.70;99.90;;;;;;5049049;28;20945;-64
2022/05/26 03:53:28;;;;;;;26.27;6.60;;;13.70;99.90;;;;;;5048229;28;20259;-63
2022/05/26 03:55:56;;;;;;;25.23;5.93;;;13.70;99.90;;;;;;5045457;28;20215;-63
2022/05/26 03:58:28;;;;;;;26.93;6.50;;;13.70;99.90;;;;;;5051231;28;20199;-63
2022/05/26 04:00:56;;;;;;;32.00;6.17;;;13.70;99.90;;;;;;5047752;28;20205;-64
2022/05/26 04:04:02;;;;;;;30.40;7.00;;;13.70;99.90;;;;;;5045872;28;20234;-63
2022/05/26 04:07:08;;;;;;;31.03;7.00;;;13.60;99.90;;;;;;5048702;28;20544;-64
2022/05/26 04:09:39;;;;;;;36.23;6.63;;;13.60;99.90;;;;;;5032314;28;20195;-63
2022/05/26 04:12:08;;;;;;;22.40;6.23;;;13.60;99.90;;;;;;5047995;28;20196;-64
2022/05/26 04:14:37;;;;;;;25.33;6.97;;;13.60;99.90;;;;;;5043631;28;20195;-64
2022/05/26 04:17:06;;;;;;;35.40;7.87;;;13.60;99.90;;;;;;5050759;28;20200;-63
2022/05/26 04:19:35;;;;;;;24.27;7.23;;;13.60;99.90;;;;;;5048673;28;20258;-63
2022/05/26 04:22:19;;;;;;;29.63;7.70;;;13.60;99.90;;;;;;5078712;28;20198;-63
2022/05/26 04:24:50;;;;;;;25.23;7.63;;;13.60;99.90;;;;;;5048659;28;20236;-63
2022/05/26 04:27:21;;;;;;;23.40;7.60;;;13.60;99.90;;;;;;5049902;28;20208;-63
2022/05/26 04:29:50;;;;;;;28.33;8.30;;;13.60;99.90;;;;;;5051557;28;20207;-63
2022/05/26 04:32:19;;;;;;;29.60;8.20;;;13.60;99.90;;;;;;5041643;28;20205;-63
2022/05/26 04:34:48;;;;;;;25.03;8.57;;;13.60;99.90;;;;;;5043989;28;20229;-64
2022/05/26 04:37:17;;;;;;;30.33;9.60;;;13.60;99.90;;;;;;5048739;28;20275;-64
2022/05/26 04:39:45;;;;;;;29.50;9.77;;;13.60;99.90;;;;;;5046526;28;20211;-64
2022/05/26 04:42:15;;;;;;;30.93;9.07;;;13.60;99.90;;;;;;5079309;28;20201;-63
2022/05/26 04:44:45;;;;;;;33.40;10.47;;;13.60;99.90;;;;;;5042869;28;20253;-63
2022/05/26 04:47:14;;;;;;;36.13;10.77;;;13.70;99.90;;;;;;5081283;28;20198;-64
2022/05/26 04:49:43;;;;;;;27.57;9.83;;;13.70;99.90;;;;;;5043033;28;20576;-63
2022/05/26 04:52:14;;;;;;;30.83;9.40;;;13.60;99.90;;;;;;5049613;28;20713;-63
2022/05/26 04:54:44;;;;;;;28.57;9.97;;;13.60;99.90;;;;;;5051328;28;20644;-64
2022/05/26 04:57:15;;;;;;;33.37;10.20;;;13.70;99.90;;;;;;5049419;28;20536;-63
2022/05/26 04:59:43;;;;;;;29.23;10.10;;;13.70;99.90;;;;;;5042127;28;20205;-64
2022/05/26 05:02:12;;;;;;;27.90;8.63;;;13.80;99.90;;;;;;5047892;28;20284;-63
2022/05/26 05:04:44;;;;;;;26.07;8.83;;;13.80;99.90;;;;;;5044500;28;20227;-63
2022/05/26 05:07:13;;;;;;;27.27;7.50;;;13.80;99.90;;;;;;5041273;28;20196;-64
2022/05/26 05:09:41;;;;;;;20.83;7.00;;;13.90;99.90;;;;;;5045935;28;20227;-64
2022/05/26 05:12:13;;;;;;;22.73;5.93;;;13.90;99.90;;;;;;5048029;28;20207;-64
2022/05/26 05:14:45;;;;;;;29.03;6.20;;;13.90;99.90;;;;;;5046726;28;20204;-63
2022/05/26 05:17:16;;;;;;;26.00;5.90;;;13.90;99.90;;;;;;5061714;28;20195;-63
2022/05/26 05:19:45;;;;;;;24.73;5.87;;;13.90;99.90;;;;;;5040974;28;20200;-63
2022/05/26 05:22:19;;;;;;;21.53;5.70;;;14.00;99.90;;;;;;5043815;28;20225;-63
2022/05/26 05:24:52;;;;;;;24.67;5.30;;;14.00;99.90;;;;;;5052652;28;20196;-63
2022/05/26 05:27:27;;;;;;;19.13;5.50;;;14.00;99.90;;;;;;5049444;28;20184;-63
2022/05/26 05:30:00;;;;;;;20.07;5.23;;;14.10;99.90;;;;;;5048361;28;20248;-64
2022/05/26 05:32:32;;;;;;;21.03;5.43;;;14.10;99.90;;;;;;5046782;28;20573;-64
2022/05/26 05:35:07;;;;;;;21.27;5.33;;;14.20;99.90;;;;;;5078103;28;20312;-63
2022/05/26 05:37:36;;;;;;;23.47;5.40;;;14.20;99.90;;;;;;5049666;28;20739;-64
2022/05/26 05:40:08;;;;;;;25.23;5.47;;;14.20;99.90;;;;;;5047805;28;20185;-64
2022/05/26 05:42:36;;;;;;;25.83;5.27;;;14.30;99.90;;;;;;5047275;28;20207;-64
2022/05/26 05:45:07;;;;;;;24.50;7.13;;;14.30;99.90;;;;;;5047558;28;20284;-64
2022/05/26 05:47:35;;;;;;;21.97;7.43;;;14.50;99.90;;;;;;5049237;28;20678;-64
2022/05/26 05:50:04;;;;;;;23.23;7.00;;;14.50;99.90;;;;;;5046766;28;20350;-63
2022/05/26 05:52:33;;;;;;;27.50;7.67;;;14.60;99.90;;;;;;5048407;28;20280;-63
2022/05/26 05:55:01;;;;;;;27.87;8.27;;;14.60;99.90;;;;;;5040886;28;20225;-63
2022/05/26 05:57:36;;;;;;;29.70;9.87;;;14.60;99.90;;;;;;5038980;28;20720;-64
2022/05/26 06:00:08;;;;;;;24.87;9.40;;;14.70;99.90;;;;;;5044171;28;20200;-63
2022/05/26 06:02:37;;;;;;;24.67;9.93;;;14.70;99.90;;;;;;5079081;28;20287;-64
2022/05/26 06:05:07;;;;;;;28.10;9.17;;;14.80;99.90;;;;;;5047407;28;20197;-64
2022/05/26 06:07:38;;;;;;;28.20;9.97;;;14.80;99.90;;;;;;5047260;28;20640;-63
2022/05/26 06:10:08;;;;;;;24.33;9.63;;;14.90;99.90;;;;;;5048008;28;20225;-63
2022/05/26 06:12:36;;;;;;;28.37;9.47;;;14.90;99.90;;;;;;5047750;28;20208;-64
2022/05/26 06:15:08;;;;;;;28.87;9.97;;;14.90;99.90;;;;;;5046505;28;20200;-63
2022/05/26 06:17:36;;;;;;;37.43;11.77;;;14.90;99.90;;;;;;5041865;28;20190;-64
2022/05/26 06:20:06;;;;;;;23.43;10.67;;;14.90;99.90;;;;;;5042524;28;20528;-63
2022/05/26 06:22:37;;;;;;;32.20;10.80;;;15.00;99.90;;;;;;5047668;28;20565;-64
2022/05/26 06:25:06;;;;;;;28.60;11.30;;;15.10;99.90;;;;;;5045653;28;20209;-63
2022/05/26 06:30:25;;;;;;;26.40;11.80;;;15.30;99.90;;;;;;5040124;28;20227;-64
2022/05/26 06:38:33;;;;;;;22.20;10.20;;;15.30;99.90;;;;;;5047139;28;20186;-63
2022/05/26 06:42:05;;;;;;;31.77;10.40;;;15.50;99.90;;;;;;5042805;28;20828;-64
2022/05/26 06:43:51;;;;;;;23.07;10.30;;;15.70;99.90;;;;;;5046662;28;20197;-63
2022/05/26 06:46:21;;;;;;;26.17;10.23;;;15.70;99.90;;;;;;5045214;28;20620;-64
2022/05/26 06:48:49;;;;;;;20.40;8.83;;;15.70;99.90;;;;;;5046190;28;20224;-64
2022/05/26 06:51:18;;;;;;;26.63;8.87;;;15.60;99.90;;;;;;5047499;28;20657;-63
2022/05/26 06:53:46;;;;;;;23.67;8.77;;;15.50;99.90;;;;;;5045946;28;20559;-64
2022/05/26 06:56:15;;;;;;;29.63;8.90;;;15.40;99.90;;;;;;5080326;28;20711;-63
2022/05/26 06:58:44;;;;;;;24.60;7.87;;;15.60;99.90;;;;;;5047343;28;20194;-64
2022/05/26 07:01:15;;;;;;;18.43;8.00;;;15.80;99.90;;;;;;5044133;28;20212;-64
2022/05/26 07:03:46;;;;;;;19.27;7.17;;;16.00;99.90;;;;;;5045516;28;20661;-64
2022/05/26 07:06:16;;;;;;;17.10;6.80;;;16.00;99.90;;;;;;5044511;28;20187;-64
2022/05/26 07:08:45;;;;;;;19.03;7.07;;;15.90;99.90;;;;;;5045969;28;20684;-63
2022/05/26 07:11:14;;;;;;;19.00;7.30;;;15.90;99.90;;;;;;5049886;28;20289;-63
2022/05/26 07:13:42;;;;;;;17.57;6.87;;;16.00;99.90;;;;;;5046410;28;20701;-64
2022/05/26 07:16:13;;;;;;;23.53;7.13;;;16.10;99.90;;;;;;5031403;28;20742;-64
2022/05/26 07:18:42;;;;;;;21.77;6.97;;;16.20;99.90;;;;;;5052204;28;20709;-64
2022/05/26 07:21:13;;;;;;;16.13;6.40;;;16.20;99.90;;;;;;5051596;28;20202;-64
2022/05/26 07:23:41;;;;;;;16.27;6.27;;;16.10;99.90;;;;;;5052433;28;20197;-64
2022/05/26 07:26:14;;;;;;;17.43;6.57;;;16.00;99.90;;;;;;5048887;28;20198;-64
2022/05/26 07:28:42;;;;;;;15.87;6.10;;;16.00;99.90;;;;;;5052166;28;20187;-64
2022/05/26 07:31:12;;;;;;;17.57;6.33;;;16.10;99.90;;;;;;5052603;28;20199;-64
2022/05/26 07:33:41;;;;;;;22.53;6.97;;;16.20;99.90;;;;;;5052625;28;20558;-64
2022/05/26 07:41:16;;;;;;;16.87;6.67;;;16.50;99.90;;;;;;5044405;28;20231;-64
2022/05/26 07:41:46;;;;;;;20.17;6.00;;;16.60;99.90;;;;;;5037995;28;20678;-64
2022/05/26 07:44:16;;;;;;;16.10;6.50;;;16.60;99.90;;;;;;5052740;28;20209;-64
2022/05/26 07:46:44;;;;;;;19.77;6.17;;;17.00;99.90;;;;;;5046051;28;20199;-64
2022/05/26 07:49:13;;;;;;;16.50;5.60;;;17.10;99.90;;;;;;5047665;28;20259;-64
2022/05/26 07:51:41;;;;;;;18.73;6.10;;;17.30;99.90;;;;;;5049919;28;20203;-63
2022/05/26 07:54:11;;;;;;;17.43;5.80;;;17.30;99.90;;;;;;5050176;28;20193;-64
2022/05/26 07:56:39;;;;;;;14.33;5.17;;;17.20;99.90;;;;;;5053876;28;20192;-64
2022/05/26 07:59:09;;;;;;;19.73;5.90;;;17.20;99.90;;;;;;5044993;28;20202;-64
2022/05/26 08:01:37;;;;;;;13.97;5.17;;;17.10;99.90;;;;;;5050610;28;20181;-64
2022/05/26 08:04:07;;;;;;;15.47;5.20;;;17.10;99.90;;;;;;5050875;28;20204;-64
2022/05/26 08:06:36;;;;;;;14.27;4.40;;;17.40;99.90;;;;;;5049174;28;20216;-64
2022/05/26 08:09:05;;;;;;;13.27;4.50;;;17.60;99.90;;;;;;5048144;28;20215;-64
2022/05/26 08:11:34;;;;;;;14.57;4.67;;;17.70;99.90;;;;;;5050065;28;20197;-64
2022/05/26 08:14:03;;;;;;;9.77;4.07;;;17.90;99.90;;;;;;5051961;28;20201;-64
2022/05/26 08:16:31;;;;;;;10.80;4.30;;;18.00;99.90;;;;;;5051784;28;20725;-64
2022/05/26 08:19:00;;;;;;;12.00;4.20;;;17.80;99.90;;;;;;5053923;28;20280;-64
2022/05/26 08:21:28;;;;;;;12.67;4.13;;;17.50;99.90;;;;;;5047714;28;20304;-63
2022/05/26 08:23:56;;;;;;;13.30;4.30;;;17.30;99.90;;;;;;5042891;28;20197;-64
2022/05/26 08:26:25;;;;;;;12.73;4.17;;;17.20;99.90;;;;;;5044564;28;20193;-64
2022/05/26 08:28:56;;;;;;;12.50;3.83;;;17.20;99.90;;;;;;5039688;28;20305;-64
2022/05/26 08:31:25;;;;;;;14.83;3.87;;;17.30;99.90;;;;;;5046355;28;20211;-64
2022/05/26 08:33:54;;;;;;;14.13;3.50;;;17.90;99.90;;;;;;5045047;28;20197;-64
2022/05/26 08:36:25;;;;;;;12.87;3.93;;;18.10;99.90;;;;;;5045341;28;20229;-64
2022/05/26 08:38:55;;;;;;;9.73;3.67;;;18.50;99.90;;;;;;5046317;28;20200;-63
2022/05/26 08:41:26;;;;;;;7.43;3.47;;;18.30;99.90;;;;;;5048176;28;20192;-64
2022/05/26 08:44:01;;;;;;;8.77;3.50;;;18.10;99.90;;;;;;5048926;28;20193;-63
2022/05/26 08:46:39;;;;;;;12.03;3.93;;;17.90;99.90;;;;;;5045680;28;20227;-64
2022/05/26 08:49:14;;;;;;;15.87;3.83;;;17.70;99.90;;;;;;5046905;28;20224;-64
2022/05/26 08:51:47;;;;;;;11.57;3.47;;;17.90;99.90;;;;;;5049090;28;20552;-62
2022/05/26 08:54:22;;;;;;;7.57;3.70;;;18.30;99.90;;;;;;5048980;28;20207;-61
2022/05/26 08:56:53;;;;;;;9.90;3.27;;;18.70;99.90;;;;;;5081476;28;20278;-61
2022/05/26 08:59:30;;;;;;;14.83;3.50;;;19.00;99.90;;;;;;5048219;28;20204;-61
2022/05/26 09:02:01;;;;;;;9.50;3.00;;;19.10;99.90;;;;;;5050874;28;20258;-61
2022/05/26 09:04:30;;;;;;;10.97;3.10;;;18.90;99.90;;;;;;5047644;28;20207;-61
2022/05/26 09:12:59;;;;;;;9.13;3.07;;;19.40;99.90;;;;;;5047953;28;20278;-61
2022/05/26 09:15:29;;;;;;;8.67;2.40;;;19.80;99.90;;;;;;5047535;28;20273;-61
2022/05/26 09:17:58;;;;;;;8.47;2.80;;;20.20;99.90;;;;;;5050315;28;20197;-61
2022/05/26 09:20:33;;;;;;;8.53;3.00;;;20.00;99.90;;;;;;5044801;28;20202;-61
2022/05/26 09:23:22;;;;;;;6.30;2.83;;;19.80;99.90;;;;;;5047857;28;20605;-61
2022/05/26 09:25:52;;;;;;;7.53;2.63;;;19.80;99.90;;;;;;5059284;28;20637;-61
2022/05/26 09:28:34;;;;;;;5.23;2.10;;;20.00;99.90;;;;;;5043645;28;20204;-60
2022/05/26 09:31:25;;;;;;;6.20;2.43;;;20.00;99.90;;;;;;5042215;28;20211;-61
2022/05/26 09:34:03;;;;;;;10.43;2.70;;;19.70;99.90;;;;;;5041215;28;20193;-61
2022/05/26 09:36:38;;;;;;;11.47;2.90;;;19.50;99.90;;;;;;5041101;28;20630;-61
2022/05/26 09:39:08;;;;;;;7.93;2.97;;;19.60;99.90;;;;;;5047061;28;20202;-61
2022/05/26 09:41:42;;;;;;;7.93;2.50;;;19.90;99.90;;;;;;5044693;28;20264;-61
2022/05/26 09:44:38;;;;;;;6.13;2.53;;;19.80;99.90;;;;;;5045073;28;20315;-61
2022/05/26 09:47:29;;;;;;;5.87;3.03;;;19.70;99.90;;;;;;5047353;28;20642;-63
2022/05/26 09:50:00;;;;;;;12.73;3.37;;;19.30;99.90;;;;;;5045585;28;20305;-64
2022/05/26 09:52:38;;;;;;;8.13;2.80;;;19.10;99.90;;;;;;5045542;28;20216;-63
2022/05/26 09:55:17;;;;;;;7.13;2.70;;;18.80;99.90;;;;;;5041987;28;20666;-63
2022/05/26 09:57:46;;;;;;;7.40;2.70;;;19.00;99.90;;;;;;5046937;28;20281;-64
2022/05/26 10:00:31;;;;;;;6.87;2.50;;;19.70;99.90;;;;;;5044809;28;20196;-63
2022/05/26 10:03:25;;;;;;;5.17;2.10;;;20.40;99.90;;;;;;5046542;28;20652;-63
2022/05/26 10:06:07;;;;;;;6.50;2.53;;;20.50;99.90;;;;;;5057432;28;20599;-64
2022/05/26 10:08:42;;;;;;;7.33;2.70;;;21.10;99.90;;;;;;5048024;28;20215;-61
2022/05/26 10:11:16;;;;;;;6.63;2.73;;;20.90;99.90;;;;;;5043031;28;20217;-61
2022/05/26 10:14:01;;;;;;;7.57;2.50;;;20.40;99.90;;;;;;5078817;28;21499;-61
2022/05/26 10:16:38;;;;;;;4.37;2.30;;;21.00;99.90;;;;;;5040816;28;20281;-62
2022/05/26 10:19:20;;;;;;;2.57;2.33;;;21.40;99.90;;;;;;5035500;28;21973;-62
2022/05/26 10:22:00;;;;;;;4.93;1.90;;;21.70;99.90;;;;;;5037242;28;20199;-62
2022/05/26 10:25:10;;;;;;;3.93;2.13;;;21.30;99.90;;;;;;5042503;28;20207;-61
2022/05/26 10:27:54;;;;;;;8.30;2.40;;;21.60;99.90;;;;;;4997555;28;20228;-61
2022/05/26 10:30:35;;;;;;;2.80;1.90;;;21.20;99.90;;;;;;5035680;28;20196;-62
2022/05/26 10:33:41;;;;;;;5.57;2.43;;;20.70;99.90;;;;;;5040131;28;20207;-61
2022/05/26 10:36:21;;;;;;;4.20;1.97;;;20.20;99.90;;;;;;4965486;28;20295;-64
2022/05/26 10:39:08;;;;;;;6.00;2.10;;;19.90;99.90;;;;;;5040181;28;20210;-63
2022/05/26 10:41:41;;;;;;;5.27;2.50;;;19.70;99.90;;;;;;5060957;28;20216;-63
2022/05/26 10:44:18;;;;;;;5.10;2.40;;;19.60;99.90;;;;;;5048434;28;20663;-61
2022/05/26 10:46:56;;;;;;;4.37;2.33;;;19.60;99.90;;;;;;5046163;28;20200;-61
2022/05/26 10:49:34;;;;;;;3.37;1.80;;;19.60;99.90;;;;;;5052520;28;20216;-61
2022/05/26 10:52:12;;;;;;;4.13;1.90;;;20.20;99.90;;;;;;5052418;28;20219;-63
2022/05/26 10:54:48;;;;;;;4.70;2.20;;;20.70;99.90;;;;;;5049788;28;20209;-63
2022/05/26 10:57:25;;;;;;;4.13;1.90;;;20.80;99.90;;;;;;5052815;28;20193;-64
2022/05/26 11:00:01;;;;;;;3.67;2.00;;;21.20;99.90;;;;;;5050867;28;20277;-64
2022/05/26 11:02:37;;;;;;;5.23;1.70;;;21.00;99.90;;;;;;5053761;28;20180;-64
2022/05/26 11:05:08;;;;;;;6.27;2.00;;;21.10;99.90;;;;;;5074437;28;20202;-64
2022/05/26 11:07:45;;;;;;;10.37;2.27;;;21.10;99.90;;;;;;5049708;28;20531;-64
2022/05/26 11:10:21;;;;;;;6.73;1.87;;;21.00;99.90;;;;;;5050087;28;20204;-63
2022/05/26 11:12:55;;;;;;;3.80;1.83;;;21.50;99.90;;;;;;5052054;28;20283;-64
2022/05/26 11:18:22;;;;;;;5.43;1.80;;;22.30;99.90;;;;;;5051978;28;20198;-64
2022/05/26 11:20:54;;;;;;;4.33;1.73;;;21.80;99.90;;;;;;5050341;28;20289;-63
2022/05/26 11:23:25;;;;;;;5.73;2.00;;;21.90;99.90;;;;;;5049368;28;20193;-63
2022/05/26 11:26:00;;;;;;;4.37;1.90;;;22.30;99.90;;;;;;5076834;28;20711;-64
2022/05/26 11:28:32;;;;;;;5.67;1.77;;;22.50;99.90;;;;;;5048775;28;20199;-64
2022/05/26 11:36:48;;;;;;;5.10;1.70;;;22.80;99.90;;;;;;5042730;28;20231;-63
2022/05/26 11:39:30;;;;;;;5.17;1.83;;;23.00;99.90;;;;;;5043686;28;20682;-63
2022/05/26 11:42:02;;;;;;;3.77;1.80;;;23.40;99.90;;;;;;5063704;28;20672;-64
2022/05/26 11:44:37;;;;;;;7.70;2.00;;;23.30;99.90;;;;;;5048962;28;20201;-63
2022/05/26 11:47:25;;;;;;;4.23;1.87;;;23.00;99.90;;;;;;5051480;28;20194;-63
2022/05/26 11:50:20;;;;;;;3.03;1.77;;;22.60;99.90;;;;;;5052177;28;20296;-63
2022/05/26 11:53:07;;;;;;;4.50;1.83;;;22.50;99.90;;;;;;5052513;28;20296;-64
2022/05/26 11:55:50;;;;;;;6.07;1.90;;;21.90;99.90;;;;;;5051869;28;20200;-64
2022/05/26 11:58:37;;;;;;;5.20;2.00;;;21.70;99.90;;;;;;5045274;28;20207;-63
2022/05/26 12:01:19;;;;;;;2.47;1.57;;;21.70;99.90;;;;;;5045662;28;20222;-64
2022/05/26 12:04:01;;;;;;;3.63;1.70;;;22.20;99.90;;;;;;5043880;28;20212;-64
2022/05/26 12:06:40;;;;;;;2.80;1.70;;;22.20;99.90;;;;;;5050628;28;20197;-62
2022/05/26 12:09:12;;;;;;;7.13;1.80;;;22.10;99.90;;;;;;5042302;28;20196;-63
2022/05/26 12:11:58;;;;;;;4.00;1.80;;;22.40;99.90;;;;;;5048737;28;20333;-63
2022/05/26 12:14:30;;;;;;;4.07;1.80;;;22.20;99.90;;;;;;5041122;28;20312;-63
2022/05/26 12:17:30;;;;;;;8.70;2.03;;;22.10;99.90;;;;;;5050054;28;20285;-63
2022/05/26 12:20:03;;;;;;;3.60;1.90;;;22.30;99.90;;;;;;5051454;28;20197;-65
2022/05/26 12:22:36;;;;;;;5.87;1.93;;;22.10;99.90;;;;;;5048231;28;20286;-63
2022/05/26 12:25:21;;;;;;;13.10;2.03;;;21.80;99.90;;;;;;5049177;28;20197;-63
2022/05/26 12:28:06;;;;;;;5.93;1.67;;;21.60;99.90;;;;;;5045593;28;20271;-63
2022/05/26 12:31:03;;;;;;;3.53;1.83;;;21.60;99.90;;;;;;5051660;28;20205;-63
2022/05/26 12:34:05;;;;;;;6.97;2.20;;;21.90;99.90;;;;;;5065160;28;20217;-63
2022/05/26 12:36:50;;;;;;;6.87;2.17;;;21.90;99.90;;;;;;5049116;28;20225;-64
2022/05/26 12:40:00;;;;;;;5.23;1.70;;;21.70;99.90;;;;;;5044649;28;20201;-63
2022/05/26 12:42:40;;;;;;;3.20;1.70;;;21.80;99.90;;;;;;5031231;28;20710;-63
2022/05/26 12:45:20;;;;;;;7.13;3.40;;;21.70;99.90;;;;;;5049410;28;20703;-63
2022/05/26 12:48:13;;;;;;;5.50;2.20;;;21.50;99.90;;;;;;5050740;28;20181;-64
2022/05/26 12:50:44;;;;;;;6.37;1.97;;;21.30;99.90;;;;;;5051124;28;20216;-63
2022/05/26 12:53:18;;;;;;;5.07;1.80;;;21.30;99.90;;;;;;5077331;28;20220;-65
2022/05/26 12:55:57;;;;;;;4.33;1.60;;;21.50;99.90;;;;;;5048689;28;20578;-64
2022/05/26 12:58:29;;;;;;;2.50;1.67;;;21.60;99.90;;;;;;5045240;28;20197;-63
2022/05/26 13:01:03;;;;;;;5.10;1.77;;;21.40;99.90;;;;;;5052511;28;20199;-64
2022/05/26 13:03:36;;;;;;;4.80;1.63;;;21.30;99.90;;;;;;5047115;28;20592;-64
2022/05/26 13:06:08;;;;;;;2.83;1.60;;;21.20;99.90;;;;;;5048903;28;20683;-63
2022/05/26 13:08:47;;;;;;;4.33;1.80;;;21.00;99.90;;;;;;5049789;28;20709;-63
2022/05/26 13:11:18;;;;;;;2.57;1.67;;;21.00;99.90;;;;;;5050576;28;20247;-64
2022/05/26 13:13:50;;;;;;;5.20;1.80;;;21.10;99.90;;;;;;5049899;28;20215;-63
2022/05/26 13:16:27;;;;;;;2.13;1.37;;;21.10;99.90;;;;;;5049240;28;20212;-64
2022/05/26 13:19:05;;;;;;;5.13;2.07;;;21.10;99.90;;;;;;5050019;28;20541;-64
2022/05/26 13:21:33;;;;;;;2.20;1.60;;;21.00;99.90;;;;;;5047439;28;20192;-61
2022/05/26 13:24:04;;;;;;;4.63;1.60;;;21.10;99.90;;;;;;5047338;28;20192;-61
2022/05/26 13:26:35;;;;;;;3.30;1.70;;;21.20;99.90;;;;;;5049703;28;20193;-61
2022/05/26 13:29:08;;;;;;;6.67;2.20;;;21.50;99.90;;;;;;5045600;28;20197;-61
2022/05/26 13:34:30;;;;;;;5.03;1.50;;;21.40;99.90;;;;;;5045873;28;20737;-61
2022/05/26 13:37:04;;;;;;;5.87;1.70;;;21.30;99.90;;;;;;5046366;28;20243;-62
2022/05/26 13:39:34;;;;;;;4.43;1.47;;;21.60;99.90;;;;;;5045986;28;20191;-60
2022/05/26 13:42:06;;;;;;;3.73;1.90;;;21.70;99.90;;;;;;5046899;28;20276;-61
2022/05/26 13:44:39;;;;;;;4.90;1.57;;;21.70;99.90;;;;;;5046246;28;20200;-60
2022/05/26 13:47:09;;;;;;;3.60;1.70;;;21.60;99.90;;;;;;5046018;28;20774;-60
2022/05/26 13:49:39;;;;;;;3.90;1.50;;;21.70;99.90;;;;;;5048178;28;20876;-60
2022/05/26 13:52:10;;;;;;;4.10;1.73;;;21.60;99.90;;;;;;5043250;28;20247;-61
2022/05/26 13:54:50;;;;;;;5.70;2.00;;;21.60;99.90;;;;;;5046190;28;20212;-60